createdAt,value
2022-09-17T00:01:33.399Z,10.75
2022-09-17T00:04:04.777Z,10.74
2022-09-17T00:06:36.456Z,10.75
2022-09-17T00:09:07.590Z,10.76
2022-09-17T00:11:38.628Z,10.76
2022-09-17T00:14:09.355Z,10.77
2022-09-17T00:16:40.511Z,10.77
2022-09-17T00:19:14.506Z,10.78
2022-09-17T00:21:42.846Z,10.78
2022-09-17T00:24:13.186Z,10.77
2022-09-17T00:26:40.986Z,10.76
2022-09-17T00:29:09.569Z,10.75
2022-09-17T00:31:37.592Z,10.75
2022-09-17T00:34:06.664Z,10.74
2022-09-17T00:36:36.748Z,10.74
2022-09-17T00:39:06.401Z,10.74
2022-09-17T00:41:35.698Z,10.74
2022-09-17T00:44:37.746Z,10.73
2022-09-17T00:47:12.693Z,10.72
2022-09-17T00:49:41.153Z,10.72
2022-09-17T00:52:18.435Z,10.71
2022-09-17T00:54:54.641Z,10.70
2022-09-17T00:57:24.174Z,10.68
2022-09-17T00:59:52.309Z,10.68
2022-09-17T01:02:20.728Z,10.65
2022-09-17T01:04:48.426Z,10.65
2022-09-17T01:07:53.607Z,10.64
2022-09-17T01:10:30.444Z,10.63
2022-09-17T01:13:30.465Z,10.61
2022-09-17T01:16:21.641Z,10.61
2022-09-17T01:18:58.362Z,10.59
2022-09-17T01:21:39.450Z,10.57
2022-09-17T01:24:39.556Z,10.55
2022-09-17T01:27:42.458Z,10.54
2022-09-17T01:30:22.419Z,10.52
2022-09-17T01:33:12.758Z,10.50
2022-09-17T01:36:12.391Z,10.50
2022-09-17T01:39:09.340Z,10.49
2022-09-17T01:41:45.763Z,10.48
2022-09-17T01:45:00.194Z,10.48
2022-09-17T01:47:37.538Z,10.48
2022-09-17T01:50:24.375Z,10.49
2022-09-17T01:52:55.693Z,10.48
2022-09-17T01:55:30.616Z,10.48
2022-09-17T01:58:08.760Z,10.47
2022-09-17T02:00:41.698Z,10.46
2022-09-17T02:03:24.946Z,10.45
2022-09-17T02:06:01.364Z,10.44
2022-09-17T02:08:40.104Z,10.45
2022-09-17T02:11:12.112Z,10.45
2022-09-17T02:13:56.341Z,10.45
2022-09-17T02:16:27.244Z,10.44
2022-09-17T02:18:55.106Z,10.44
2022-09-17T02:21:29.884Z,10.44
2022-09-17T02:24:26.784Z,10.43
2022-09-17T02:27:37.249Z,10.41
2022-09-17T02:30:06.431Z,10.39
2022-09-17T02:32:34.328Z,10.38
2022-09-17T02:35:02.273Z,10.37
2022-09-17T02:37:30.225Z,10.34
2022-09-17T02:39:58.170Z,10.31
2022-09-17T02:42:36.298Z,10.29
2022-09-17T02:45:03.918Z,10.27
2022-09-17T02:47:58.661Z,10.25
2022-09-17T02:50:36.277Z,10.24
2022-09-17T02:53:15.613Z,10.22
2022-09-17T02:56:03.658Z,10.20
2022-09-17T02:58:38.453Z,10.19
2022-09-17T03:01:16.510Z,10.17
2022-09-17T03:03:46.224Z,10.16
2022-09-17T03:06:14.274Z,10.15
2022-09-17T03:08:43.444Z,10.15
2022-09-17T03:11:15.770Z,10.15
2022-09-17T03:13:47.519Z,10.12
2022-09-17T03:16:15.335Z,10.11
2022-09-17T03:18:43.116Z,10.10
2022-09-17T03:21:13.264Z,10.07
2022-09-17T03:23:41.264Z,10.08
2022-09-17T03:26:09.622Z,10.07
2022-09-17T03:28:37.478Z,10.07
2022-09-17T03:31:06.192Z,10.07
2022-09-17T03:33:34.146Z,10.07
2022-09-17T03:36:02.310Z,10.06
2022-09-17T03:38:30.215Z,10.04
2022-09-17T03:40:59.793Z,10.04
2022-09-17T03:43:28.369Z,10.03
2022-09-17T03:45:56.819Z,10.03
2022-09-17T03:48:24.703Z,10.02
2022-09-17T03:50:52.547Z,10.00
2022-09-17T03:53:20.546Z,9.99
2022-09-17T03:55:48.281Z,9.98
2022-09-17T03:58:15.913Z,9.97
2022-09-17T04:00:44.385Z,9.96
2022-09-17T04:03:12.837Z,9.95
2022-09-17T04:05:41.057Z,9.95
2022-09-17T04:08:08.740Z,9.95
2022-09-17T04:10:36.497Z,9.97
2022-09-17T04:13:04.197Z,10.00
2022-09-17T04:15:31.987Z,10.02
2022-09-17T04:17:59.761Z,10.02
2022-09-17T04:20:28.784Z,10.03
2022-09-17T04:22:56.859Z,10.03
2022-09-17T04:25:24.671Z,10.05
2022-09-17T04:27:52.558Z,10.03
2022-09-17T04:30:20.354Z,10.02
2022-09-17T04:32:48.498Z,10.01
2022-09-17T04:35:16.529Z,10.00
2022-09-17T04:37:44.310Z,9.98
2022-09-17T04:40:12.372Z,9.98
2022-09-17T04:42:40.165Z,10.00
2022-09-17T04:45:08.412Z,10.00
2022-09-17T04:47:39.827Z,10.01
2022-09-17T04:50:07.978Z,10.02
2022-09-17T04:52:35.688Z,10.03
2022-09-17T04:55:04.474Z,10.05
2022-09-17T04:57:32.241Z,10.07
2022-09-17T05:00:00.085Z,10.10
2022-09-17T05:02:28.016Z,10.12
2022-09-17T05:04:57.148Z,10.15
2022-09-17T05:07:24.855Z,10.17
2022-09-17T05:09:53.466Z,10.19
2022-09-17T05:12:21.121Z,10.22
2022-09-17T05:14:48.943Z,10.25
2022-09-17T05:17:16.784Z,10.30
2022-09-17T05:19:44.612Z,10.36
2022-09-17T05:22:12.511Z,10.44
2022-09-17T05:24:40.376Z,10.52
2022-09-17T05:27:08.675Z,10.60
2022-09-17T05:29:37.078Z,10.66
2022-09-17T05:32:04.982Z,10.72
2022-09-17T05:34:33.119Z,10.75
2022-09-17T05:37:00.921Z,10.81
2022-09-17T05:39:29.516Z,10.84
2022-09-17T05:42:00.260Z,10.91
2022-09-17T05:44:28.252Z,10.97
2022-09-17T05:46:56.318Z,11.07
2022-09-17T05:49:24.137Z,11.17
2022-09-17T05:51:52.141Z,11.28
2022-09-17T05:54:20.096Z,11.39
2022-09-17T05:56:47.980Z,11.47
2022-09-17T05:59:16.020Z,11.54
2022-09-17T06:01:45.079Z,11.61
2022-09-17T06:04:14.377Z,11.69
2022-09-17T06:06:42.085Z,11.75
2022-09-17T06:09:10.583Z,11.81
2022-09-17T06:11:38.565Z,11.86
2022-09-17T06:14:06.381Z,11.93
2022-09-17T06:16:34.723Z,11.98
2022-09-17T06:19:04.035Z,12.02
2022-09-17T06:21:33.029Z,12.05
2022-09-17T06:24:01.888Z,12.08
2022-09-17T06:26:29.892Z,12.11
2022-09-17T06:29:01.192Z,12.13
2022-09-17T06:31:29.140Z,12.15
2022-09-17T06:33:59.651Z,12.19
2022-09-17T06:36:27.521Z,12.24
2022-09-17T06:38:55.341Z,12.28
2022-09-17T06:41:23.191Z,12.33
2022-09-17T06:43:54.481Z,12.38
2022-09-17T06:46:23.666Z,12.44
2022-09-17T06:48:51.767Z,12.51
2022-09-17T06:51:19.965Z,12.54
2022-09-17T06:53:48.931Z,12.56
2022-09-17T06:56:17.539Z,12.57
2022-09-17T06:58:45.441Z,12.59
2022-09-17T07:01:14.346Z,12.61
2022-09-17T07:03:43.644Z,12.61
2022-09-17T07:06:12.820Z,12.61
2022-09-17T07:08:41.743Z,12.60
2022-09-17T07:11:09.703Z,12.59
2022-09-17T07:13:37.557Z,12.57
2022-09-17T07:16:06.661Z,12.55
2022-09-17T07:18:34.687Z,12.51
2022-09-17T07:21:05.451Z,12.47
2022-09-17T07:23:35.155Z,12.44
2022-09-17T07:26:09.314Z,12.42
2022-09-17T07:28:39.573Z,12.40
2022-09-17T07:31:11.282Z,12.39
2022-09-17T07:33:42.643Z,12.36
2022-09-17T07:36:13.393Z,12.35
2022-09-17T07:38:41.180Z,12.35
2022-09-17T07:41:14.518Z,12.37
2022-09-17T07:43:43.745Z,12.39
2022-09-17T07:46:17.866Z,12.40
2022-09-17T07:48:47.063Z,12.41
2022-09-17T07:51:28.773Z,12.42
2022-09-17T07:53:59.181Z,12.43
2022-09-17T07:56:28.591Z,12.41
2022-09-17T07:58:57.002Z,12.40
2022-09-17T08:01:25.095Z,12.39
2022-09-17T08:03:54.263Z,12.37
2022-09-17T08:06:26.367Z,12.38
2022-09-17T08:08:59.072Z,12.37
2022-09-17T08:11:52.207Z,12.39
2022-09-17T08:14:17.574Z,12.42
2022-09-17T08:16:47.704Z,12.46
2022-09-17T08:19:15.729Z,12.49
2022-09-17T08:21:43.662Z,12.51
2022-09-17T08:24:11.547Z,12.53
2022-09-17T08:26:44.065Z,12.54
2022-09-17T08:29:20.438Z,12.55
2022-09-17T08:31:48.361Z,12.56
2022-09-17T08:34:16.245Z,12.55
2022-09-17T08:36:44.209Z,12.56
2022-09-17T08:39:12.392Z,12.57
2022-09-17T08:41:40.317Z,12.59
2022-09-17T08:44:19.002Z,12.59
2022-09-17T08:47:14.987Z,12.58
2022-09-17T08:49:57.067Z,12.58
2022-09-17T08:53:06.720Z,12.59
2022-09-17T08:56:02.628Z,12.63
2022-09-17T08:58:50.889Z,12.67
2022-09-17T09:01:38.220Z,12.72
2022-09-17T09:04:21.845Z,12.75
2022-09-17T09:06:55.097Z,12.81
2022-09-17T09:09:28.562Z,12.86
2022-09-17T09:12:24.710Z,12.93
2022-09-17T09:15:02.334Z,13.02
2022-09-17T09:17:39.046Z,13.14
2022-09-17T09:20:16.841Z,13.28
2022-09-17T09:22:50.791Z,13.41
2022-09-17T09:25:27.386Z,13.49
2022-09-17T09:28:04.410Z,13.54
2022-09-17T09:31:33.936Z,13.58
2022-09-17T09:34:04.193Z,13.63
2022-09-17T09:36:33.926Z,13.64
2022-09-17T09:39:17.971Z,13.64
2022-09-17T09:42:00.908Z,13.64
2022-09-17T09:44:28.832Z,13.65
2022-09-17T09:47:08.452Z,13.67
2022-09-17T09:50:01.418Z,13.72
2022-09-17T09:53:17.381Z,13.76
2022-09-17T09:56:05.509Z,13.77
2022-09-17T09:58:41.435Z,13.76
2022-09-17T10:01:17.885Z,13.72
2022-09-17T10:03:47.415Z,13.68
2022-09-17T10:06:17.366Z,13.71
2022-09-17T10:09:05.451Z,13.69
2022-09-17T10:11:33.812Z,13.67
2022-09-17T10:14:35.482Z,13.66
2022-09-17T10:17:23.964Z,13.64
2022-09-17T10:20:12.070Z,13.62
2022-09-17T10:22:47.820Z,13.60
2022-09-17T10:25:29.684Z,13.58
2022-09-17T10:28:01.520Z,13.56
2022-09-17T10:30:29.962Z,13.51
2022-09-17T10:33:13.005Z,13.47
2022-09-17T10:35:59.336Z,13.45
2022-09-17T10:38:33.214Z,13.48
2022-09-17T10:41:13.528Z,13.52
2022-09-17T10:43:42.132Z,13.58
2022-09-17T10:46:15.440Z,13.61
2022-09-17T10:48:51.122Z,13.62
2022-09-17T10:51:26.460Z,13.62
2022-09-17T10:54:08.894Z,13.62
2022-09-17T10:56:40.316Z,13.58
2022-09-17T10:59:34.532Z,13.53
2022-09-17T11:02:36.030Z,13.48
2022-09-17T11:05:41.786Z,13.42
2022-09-17T11:08:38.923Z,13.39
2022-09-17T11:11:11.758Z,13.38
2022-09-17T11:14:01.292Z,13.39
2022-09-17T11:16:35.049Z,13.41
2022-09-17T11:19:40.763Z,13.46
2022-09-17T11:22:33.075Z,13.54
2022-09-17T11:25:24.079Z,13.62
2022-09-17T11:28:10.277Z,13.70
2022-09-17T11:31:21.713Z,13.76
2022-09-17T11:34:14.749Z,13.80
2022-09-17T11:37:11.274Z,13.86
2022-09-17T11:40:04.588Z,13.91
2022-09-17T11:42:38.852Z,13.98
2022-09-17T11:45:15.314Z,14.04
2022-09-17T11:47:49.945Z,14.09
2022-09-17T11:50:27.954Z,14.13
2022-09-17T11:53:01.760Z,14.18
2022-09-17T11:55:32.665Z,14.21
2022-09-17T11:58:08.636Z,14.22
2022-09-17T12:00:44.609Z,14.26
2022-09-17T12:03:26.018Z,14.28
2022-09-17T12:06:03.829Z,14.30
2022-09-17T12:08:44.646Z,14.33
2022-09-17T12:11:27.525Z,14.37
2022-09-17T12:14:01.673Z,14.40
2022-09-17T12:16:36.754Z,14.43
2022-09-17T12:19:41.269Z,14.46
2022-09-17T12:22:11.843Z,14.49
2022-09-17T12:24:40.655Z,14.51
2022-09-17T12:27:38.176Z,14.50
2022-09-17T12:30:23.012Z,14.50
2022-09-17T12:33:45.475Z,14.51
2022-09-17T12:36:35.702Z,14.51
2022-09-17T12:39:28.425Z,14.49
2022-09-17T12:42:26.267Z,14.48
2022-09-17T12:45:00.157Z,14.48
2022-09-17T12:47:33.639Z,14.45
2022-09-17T12:50:02.103Z,14.43
2022-09-17T12:52:48.349Z,14.41
2022-09-17T12:55:40.279Z,14.41
2022-09-17T12:58:23.502Z,14.43
2022-09-17T13:00:59.598Z,14.44
2022-09-17T13:03:33.067Z,14.45
2022-09-17T13:06:11.342Z,14.44
2022-09-17T13:08:57.542Z,14.42
2022-09-17T13:11:55.159Z,14.38
2022-09-17T13:15:07.517Z,14.36
2022-09-17T13:17:38.246Z,14.33
2022-09-17T13:20:14.009Z,14.31
2022-09-17T13:22:51.155Z,14.28
2022-09-17T13:25:21.727Z,14.27
2022-09-17T13:27:52.248Z,14.26
2022-09-17T13:30:21.169Z,14.27
2022-09-17T13:32:51.740Z,14.27
2022-09-17T13:35:22.651Z,14.28
2022-09-17T13:37:53.290Z,14.29
2022-09-17T13:40:28.124Z,14.29
2022-09-17T13:43:21.549Z,14.30
2022-09-17T13:46:01.426Z,14.30
2022-09-17T13:48:32.619Z,14.30
2022-09-17T13:51:32.338Z,14.29
2022-09-17T13:54:06.684Z,14.28
2022-09-17T13:56:51.101Z,14.25
2022-09-17T13:59:19.191Z,14.24
2022-09-17T14:02:04.222Z,14.23
2022-09-17T14:04:47.128Z,14.22
2022-09-17T14:07:21.277Z,14.23
2022-09-17T14:09:54.778Z,14.23
2022-09-17T14:12:48.896Z,14.25
2022-09-17T14:15:34.446Z,14.28
2022-09-17T14:18:23.063Z,14.33
2022-09-17T14:20:53.756Z,14.38
2022-09-17T14:23:21.696Z,14.45
2022-09-17T14:25:55.227Z,14.50
2022-09-17T14:28:29.608Z,14.53
2022-09-17T14:30:58.141Z,14.55
2022-09-17T14:33:32.160Z,14.56
2022-09-17T14:36:11.575Z,14.54
2022-09-17T14:38:44.477Z,14.53
2022-09-17T14:41:12.256Z,14.51
2022-09-17T14:44:01.326Z,14.49
2022-09-17T14:46:33.545Z,14.49
2022-09-17T14:49:23.534Z,14.47
2022-09-17T14:51:53.554Z,14.45
2022-09-17T14:54:24.970Z,14.42
2022-09-17T14:57:02.141Z,14.41
2022-09-17T14:59:42.213Z,14.38
2022-09-17T15:02:29.059Z,14.36
2022-09-17T15:04:57.587Z,14.35
2022-09-17T15:07:26.548Z,14.34
2022-09-17T15:09:55.662Z,14.32
2022-09-17T15:12:29.537Z,14.30
2022-09-17T15:14:58.474Z,14.28
2022-09-17T15:17:26.412Z,14.24
2022-09-17T15:19:58.438Z,14.21
2022-09-17T15:22:37.097Z,14.19
2022-09-17T15:25:10.629Z,14.16
2022-09-17T15:27:42.705Z,14.15
2022-09-17T15:30:20.387Z,14.14
2022-09-17T15:32:51.033Z,14.11
2022-09-17T15:35:39.688Z,14.08
2022-09-17T15:38:28.252Z,14.07
2022-09-17T15:41:11.174Z,14.07
2022-09-17T15:43:41.435Z,14.06
2022-09-17T15:46:28.864Z,14.04
2022-09-17T15:48:59.422Z,14.02
2022-09-17T15:51:33.582Z,14.03
2022-09-17T15:54:05.107Z,14.02
2022-09-17T15:56:37.428Z,14.02
2022-09-17T15:59:24.446Z,14.00
2022-09-17T16:01:55.792Z,13.99
2022-09-17T16:04:28.183Z,13.97
2022-09-17T16:07:06.292Z,13.95
2022-09-17T16:09:51.280Z,13.94
2022-09-17T16:12:22.464Z,13.94
2022-09-17T16:14:55.540Z,13.94
2022-09-17T16:17:23.791Z,13.91
2022-09-17T16:19:51.729Z,13.91
2022-09-17T16:22:19.591Z,13.90
2022-09-17T16:24:47.384Z,13.88
2022-09-17T16:27:20.328Z,13.86
2022-09-17T16:29:51.117Z,13.84
2022-09-17T16:32:20.222Z,13.82
2022-09-17T16:34:48.205Z,13.80
2022-09-17T16:37:18.729Z,13.78
2022-09-17T16:39:46.623Z,13.75
2022-09-17T16:42:14.697Z,13.73
2022-09-17T16:44:42.488Z,13.70
2022-09-17T16:47:10.327Z,13.68
2022-09-17T16:49:38.263Z,13.65
2022-09-17T16:52:06.160Z,13.61
2022-09-17T16:54:33.907Z,13.57
2022-09-17T16:57:01.770Z,13.51
2022-09-17T16:59:29.818Z,13.45
2022-09-17T17:01:58.017Z,13.40
2022-09-17T17:04:26.003Z,13.35
2022-09-17T17:06:54.186Z,13.28
2022-09-17T17:09:21.978Z,13.23
2022-09-17T17:11:50.925Z,13.16
2022-09-17T17:14:19.699Z,13.10
2022-09-17T17:16:47.480Z,13.03
2022-09-17T17:19:15.227Z,12.95
2022-09-17T17:21:47.015Z,12.88
2022-09-17T17:24:15.365Z,12.82
2022-09-17T17:26:43.645Z,12.75
2022-09-17T17:29:11.605Z,12.68
2022-09-17T17:31:39.493Z,12.61
2022-09-17T17:34:07.533Z,12.53
2022-09-17T17:36:35.830Z,12.46
2022-09-17T17:39:04.226Z,12.38
2022-09-17T17:41:32.018Z,12.31
2022-09-17T17:43:59.872Z,12.24
2022-09-17T17:46:27.697Z,12.18
2022-09-17T17:48:55.649Z,12.11
2022-09-17T17:51:24.301Z,12.05
2022-09-17T17:53:52.226Z,12.00
2022-09-17T17:56:20.739Z,11.94
2022-09-17T17:58:48.718Z,11.91
2022-09-17T18:01:20.199Z,11.89
2022-09-17T18:03:49.953Z,11.87
2022-09-17T18:06:18.422Z,11.86
2022-09-17T18:08:46.263Z,11.86
2022-09-17T18:11:14.092Z,11.85
2022-09-17T18:13:42.042Z,11.84
2022-09-17T18:16:14.031Z,11.82
2022-09-17T18:18:45.119Z,11.81
2022-09-17T18:21:19.207Z,11.79
2022-09-17T18:23:47.547Z,11.78
2022-09-17T18:26:21.945Z,11.76
2022-09-17T18:28:50.725Z,11.74
2022-09-17T18:31:24.651Z,11.73
2022-09-17T18:34:13.724Z,11.72
2022-09-17T18:36:44.008Z,11.72
2022-09-17T18:42:03.328Z,11.75
2022-09-17T18:44:31.521Z,11.75
2022-09-17T18:46:59.463Z,11.78
2022-09-17T18:49:27.417Z,11.80
2022-09-17T18:51:55.422Z,11.83
2022-09-17T18:54:23.403Z,11.86
2022-09-17T18:56:51.284Z,11.89
2022-09-17T18:59:19.269Z,11.91
2022-09-17T19:01:47.307Z,11.94
2022-09-17T19:04:15.541Z,11.97
2022-09-17T19:06:43.908Z,12.00
2022-09-17T19:09:12.040Z,12.04
2022-09-17T19:11:39.871Z,12.06
2022-09-17T19:14:10.222Z,12.11
2022-09-17T19:16:38.007Z,12.13
2022-09-17T19:19:05.813Z,12.16
2022-09-17T19:21:33.856Z,12.19
2022-09-17T19:24:03.583Z,12.22
2022-09-17T19:26:31.465Z,12.24
2022-09-17T19:29:00.631Z,12.28
2022-09-17T19:31:29.271Z,12.29
2022-09-17T19:33:58.869Z,12.31
2022-09-17T19:36:27.376Z,12.32
2022-09-17T19:38:56.042Z,12.34
2022-09-17T19:41:24.036Z,12.35
2022-09-17T19:43:57.070Z,12.37
2022-09-17T19:46:26.591Z,12.37
2022-09-17T19:48:56.233Z,12.37
2022-09-17T19:51:25.982Z,12.37
2022-09-17T19:53:54.054Z,12.36
2022-09-17T19:56:26.938Z,12.35
2022-09-17T19:58:55.310Z,12.34
2022-09-17T20:01:23.396Z,12.33
2022-09-17T20:03:53.410Z,12.31
2022-09-17T20:06:24.201Z,12.31
2022-09-17T20:08:55.077Z,12.29
2022-09-17T20:11:25.523Z,12.28
2022-09-17T20:14:07.401Z,12.26
2022-09-17T20:16:37.266Z,12.24
2022-09-17T20:19:07.282Z,12.21
2022-09-17T20:21:35.500Z,12.18
2022-09-17T20:24:06.060Z,12.14
2022-09-17T20:26:34.896Z,12.12
2022-09-17T20:29:03.876Z,12.09
2022-09-17T20:31:32.374Z,12.06
2022-09-17T20:34:02.897Z,12.04
2022-09-17T20:36:36.330Z,12.01
2022-09-17T20:39:19.455Z,11.97
2022-09-17T20:41:50.442Z,11.94
2022-09-17T20:44:18.504Z,11.93
2022-09-17T20:46:46.740Z,11.92
2022-09-17T20:49:14.655Z,11.91
2022-09-17T20:51:42.444Z,11.90
2022-09-17T20:54:10.281Z,11.88
2022-09-17T20:56:38.586Z,11.87
2022-09-17T20:59:18.643Z,11.84
2022-09-17T21:01:49.890Z,11.82
2022-09-17T21:04:19.995Z,11.80
2022-09-17T21:06:58.419Z,11.80
2022-09-17T21:09:26.334Z,11.78
2022-09-17T21:11:54.189Z,11.76
2022-09-17T21:14:22.128Z,11.74
2022-09-17T21:16:52.689Z,11.73
2022-09-17T21:19:23.544Z,11.73
2022-09-17T21:21:51.888Z,11.73
2022-09-17T21:24:19.628Z,11.72
2022-09-17T21:26:47.637Z,11.70
2022-09-17T21:29:15.502Z,11.68
2022-09-17T21:31:47.466Z,11.66
2022-09-17T21:34:16.645Z,11.64
2022-09-17T21:36:44.671Z,11.59
2022-09-17T21:39:18.208Z,11.55
2022-09-17T21:41:48.668Z,11.52
2022-09-17T21:44:16.612Z,11.50
2022-09-17T21:46:44.690Z,11.47
2022-09-17T21:49:13.569Z,11.46
2022-09-17T21:51:43.584Z,11.44
2022-09-17T21:54:17.313Z,11.43
2022-09-17T21:56:46.130Z,11.41
2022-09-17T21:59:16.445Z,11.40
2022-09-17T22:01:47.205Z,11.37
2022-09-17T22:04:18.318Z,11.35
2022-09-17T22:06:49.022Z,11.33
2022-09-17T22:09:20.779Z,11.33
2022-09-17T22:11:48.867Z,11.32
2022-09-17T22:14:19.804Z,11.31
2022-09-17T22:16:50.989Z,11.31
2022-09-17T22:19:20.720Z,11.30
2022-09-17T22:21:51.461Z,11.29
2022-09-17T22:24:22.153Z,11.28
2022-09-17T22:26:56.923Z,11.28
2022-09-17T22:29:28.052Z,11.29
2022-09-17T22:31:57.273Z,11.29
2022-09-17T22:34:26.537Z,11.28
2022-09-17T22:36:54.419Z,11.29
2022-09-17T22:39:22.571Z,11.28
2022-09-17T22:41:51.282Z,11.29
2022-09-17T22:44:20.253Z,11.30
2022-09-17T22:46:50.427Z,11.31
2022-09-17T22:49:19.391Z,11.30
2022-09-17T22:51:47.490Z,11.31
2022-09-17T22:54:17.047Z,11.31
2022-09-17T22:56:46.399Z,11.32
2022-09-17T22:59:14.154Z,11.31
2022-09-17T23:01:42.233Z,11.32
2022-09-17T23:04:10.584Z,11.33
2022-09-17T23:06:42.266Z,11.33
2022-09-17T23:09:13.560Z,11.33
2022-09-17T23:11:41.951Z,11.33
2022-09-17T23:14:12.371Z,11.34
2022-09-17T23:16:43.704Z,11.35
2022-09-17T23:19:13.580Z,11.35
2022-09-17T23:21:42.010Z,11.35
2022-09-17T23:24:15.078Z,11.34
2022-09-17T23:26:43.202Z,11.34
2022-09-17T23:29:10.968Z,11.33
2022-09-17T23:31:40.081Z,11.32
2022-09-17T23:34:08.023Z,11.32
2022-09-17T23:36:38.336Z,11.32
2022-09-17T23:39:09.315Z,11.30
2022-09-17T23:41:43.571Z,11.30
2022-09-17T23:44:15.655Z,11.30
2022-09-17T23:46:46.966Z,11.30
2022-09-17T23:49:15.888Z,11.30
2022-09-17T23:51:44.096Z,11.30
2022-09-17T23:54:12.333Z,11.28
2022-09-17T23:56:42.765Z,11.28
2022-09-17T23:59:13.729Z,11.27
